sensor_id;sensor_type;location;lat;lon;timestamp;temperature;humidity
2957;DHT22;1488;51.548;7.222;2023-03-23T00:01:59;20.00;65.70
2957;DHT22;1488;51.548;7.222;2023-03-23T00:04:26;20.10;65.80
2957;DHT22;1488;51.548;7.222;2023-03-23T00:06:55;20.10;65.80
2957;DHT22;1488;51.548;7.222;2023-03-23T00:09:22;20.00;65.70
2957;DHT22;1488;51.548;7.222;2023-03-23T00:11:50;20.10;65.90
2957;DHT22;1488;51.548;7.222;2023-03-23T00:16:49;20.00;65.70
2957;DHT22;1488;51.548;7.222;2023-03-23T00:19:17;20.00;65.70
2957;DHT22;1488;51.548;7.222;2023-03-23T00:21:45;20.00;65.70
2957;DHT22;1488;51.548;7.222;2023-03-23T00:24:14;20.00;66.50
2957;DHT22;1488;51.548;7.222;2023-03-23T00:26:43;20.00;65.70
2957;DHT22;1488;51.548;7.222;2023-03-23T00:29:13;20.00;65.70
2957;DHT22;1488;51.548;7.222;2023-03-23T00:31:41;20.00;65.70
2957;DHT22;1488;51.548;7.222;2023-03-23T00:34:14;20.00;65.70
2957;DHT22;1488;51.548;7.222;2023-03-23T00:36:45;20.10;65.80
2957;DHT22;1488;51.548;7.222;2023-03-23T00:39:12;20.10;65.80
2957;DHT22;1488;51.548;7.222;2023-03-23T00:41:41;20.10;65.80
2957;DHT22;1488;51.548;7.222;2023-03-23T00:44:08;20.00;65.70
2957;DHT22;1488;51.548;7.222;2023-03-23T00:46:36;20.00;65.70
2957;DHT22;1488;51.548;7.222;2023-03-23T00:49:10;20.00;65.60
2957;DHT22;1488;51.548;7.222;2023-03-23T00:51:39;20.00;65.60
2957;DHT22;1488;51.548;7.222;2023-03-23T00:54:06;20.00;65.70
2957;DHT22;1488;51.548;7.222;2023-03-23T00:56:33;20.00;65.70
2957;DHT22;1488;51.548;7.222;2023-03-23T00:59:00;20.00;65.70
2957;DHT22;1488;51.548;7.222;2023-03-23T01:01:28;20.00;65.70
2957;DHT22;1488;51.548;7.222;2023-03-23T01:03:55;20.00;65.60
2957;DHT22;1488;51.548;7.222;2023-03-23T01:06:27;20.00;65.60
2957;DHT22;1488;51.548;7.222;2023-03-23T01:08:57;20.00;65.60
2957;DHT22;1488;51.548;7.222;2023-03-23T01:11:26;19.90;65.50
2957;DHT22;1488;51.548;7.222;2023-03-23T01:13:53;20.00;65.60
2957;DHT22;1488;51.548;7.222;2023-03-23T01:16:20;20.00;65.70
2957;DHT22;1488;51.548;7.222;2023-03-23T01:18:48;19.80;65.30
2957;DHT22;1488;51.548;7.222;2023-03-23T01:21:16;19.90;65.50
2957;DHT22;1488;51.548;7.222;2023-03-23T01:23:44;19.90;65.50
2957;DHT22;1488;51.548;7.222;2023-03-23T01:26:17;19.90;65.50
2957;DHT22;1488;51.548;7.222;2023-03-23T01:28:45;19.90;65.50
2957;DHT22;1488;51.548;7.222;2023-03-23T01:31:14;19.90;65.50
2957;DHT22;1488;51.548;7.222;2023-03-23T01:33:44;19.90;65.50
2957;DHT22;1488;51.548;7.222;2023-03-23T01:36:13;19.90;65.50
2957;DHT22;1488;51.548;7.222;2023-03-23T01:38:42;19.90;65.50
2957;DHT22;1488;51.548;7.222;2023-03-23T01:41:11;19.90;65.50
2957;DHT22;1488;51.548;7.222;2023-03-23T01:43:55;20.00;65.60
2957;DHT22;1488;51.548;7.222;2023-03-23T01:46:23;19.90;65.50
2957;DHT22;1488;51.548;7.222;2023-03-23T01:48:51;20.10;65.70
2957;DHT22;1488;51.548;7.222;2023-03-23T01:51:20;19.90;65.50
2957;DHT22;1488;51.548;7.222;2023-03-23T01:53:51;19.90;65.50
2957;DHT22;1488;51.548;7.222;2023-03-23T01:56:22;19.90;65.50
2957;DHT22;1488;51.548;7.222;2023-03-23T01:58:52;19.90;65.50
2957;DHT22;1488;51.548;7.222;2023-03-23T02:01:22;19.90;65.50
2957;DHT22;1488;51.548;7.222;2023-03-23T02:03:52;19.90;65.50
2957;DHT22;1488;51.548;7.222;2023-03-23T02:06:19;19.90;65.40
2957;DHT22;1488;51.548;7.222;2023-03-23T02:08:48;19.90;65.40
2957;DHT22;1488;51.548;7.222;2023-03-23T02:11:17;19.90;65.40
2957;DHT22;1488;51.548;7.222;2023-03-23T02:13:45;19.90;65.40
2957;DHT22;1488;51.548;7.222;2023-03-23T02:16:19;19.90;65.50
2957;DHT22;1488;51.548;7.222;2023-03-23T02:18:57;19.90;65.50
2957;DHT22;1488;51.548;7.222;2023-03-23T02:24:59;19.90;65.40
2957;DHT22;1488;51.548;7.222;2023-03-23T02:31:07;19.90;65.50
2957;DHT22;1488;51.548;7.222;2023-03-23T02:33:56;19.90;65.50
2957;DHT22;1488;51.548;7.222;2023-03-23T02:36:29;19.90;65.50
2957;DHT22;1488;51.548;7.222;2023-03-23T02:39:02;19.80;65.30
2957;DHT22;1488;51.548;7.222;2023-03-23T02:41:36;19.90;65.40
2957;DHT22;1488;51.548;7.222;2023-03-23T02:44:06;19.90;65.40
2957;DHT22;1488;51.548;7.222;2023-03-23T02:46:35;19.90;65.40
2957;DHT22;1488;51.548;7.222;2023-03-23T02:49:06;19.90;65.40
2957;DHT22;1488;51.548;7.222;2023-03-23T02:51:34;19.90;65.40
2957;DHT22;1488;51.548;7.222;2023-03-23T02:54:03;19.90;65.40
2957;DHT22;1488;51.548;7.222;2023-03-23T02:56:31;19.90;65.40
2957;DHT22;1488;51.548;7.222;2023-03-23T02:58:59;20.00;65.50
2957;DHT22;1488;51.548;7.222;2023-03-23T03:01:58;19.90;65.40
2957;DHT22;1488;51.548;7.222;2023-03-23T03:04:36;19.90;65.40
2957;DHT22;1488;51.548;7.222;2023-03-23T03:07:18;19.90;65.40
2957;DHT22;1488;51.548;7.222;2023-03-23T03:09:49;19.90;65.40
2957;DHT22;1488;51.548;7.222;2023-03-23T03:12:22;19.80;65.20
2957;DHT22;1488;51.548;7.222;2023-03-23T03:14:57;19.90;65.30
2957;DHT22;1488;51.548;7.222;2023-03-23T03:17:26;19.90;65.40
2957;DHT22;1488;51.548;7.222;2023-03-23T03:19:58;19.90;65.40
2957;DHT22;1488;51.548;7.222;2023-03-23T03:22:32;19.90;65.40
2957;DHT22;1488;51.548;7.222;2023-03-23T03:25:03;19.90;65.30
2957;DHT22;1488;51.548;7.222;2023-03-23T03:27:31;19.90;65.40
2957;DHT22;1488;51.548;7.222;2023-03-23T03:30:02;19.80;65.20
2957;DHT22;1488;51.548;7.222;2023-03-23T03:32:40;19.90;65.30
2957;DHT22;1488;51.548;7.222;2023-03-23T03:35:10;19.90;65.40
2957;DHT22;1488;51.548;7.222;2023-03-23T03:37:38;20.00;65.50
2957;DHT22;1488;51.548;7.222;2023-03-23T03:40:08;19.90;65.40
2957;DHT22;1488;51.548;7.222;2023-03-23T03:42:37;19.80;65.20
2957;DHT22;1488;51.548;7.222;2023-03-23T03:45:06;19.90;65.40
2957;DHT22;1488;51.548;7.222;2023-03-23T03:47:33;19.80;65.20
2957;DHT22;1488;51.548;7.222;2023-03-23T03:50:01;19.90;65.30
2957;DHT22;1488;51.548;7.222;2023-03-23T03:55:50;19.90;65.30
2957;DHT22;1488;51.548;7.222;2023-03-23T03:58:20;19.80;65.20
2957;DHT22;1488;51.548;7.222;2023-03-23T04:00:48;19.80;65.20
2957;DHT22;1488;51.548;7.222;2023-03-23T04:03:15;19.80;65.20
2957;DHT22;1488;51.548;7.222;2023-03-23T04:05:42;19.80;65.20
2957;DHT22;1488;51.548;7.222;2023-03-23T04:08:10;19.90;65.40
2957;DHT22;1488;51.548;7.222;2023-03-23T04:10:37;19.80;65.20
2957;DHT22;1488;51.548;7.222;2023-03-23T04:13:06;19.80;65.20
2957;DHT22;1488;51.548;7.222;2023-03-23T04:15:33;19.80;65.20
2957;DHT22;1488;51.548;7.222;2023-03-23T04:18:00;19.90;65.40
2957;DHT22;1488;51.548;7.222;2023-03-23T04:20:27;19.80;65.20
2957;DHT22;1488;51.548;7.222;2023-03-23T04:22:54;19.80;65.20
2957;DHT22;1488;51.548;7.222;2023-03-23T04:25:21;19.80;65.20
2957;DHT22;1488;51.548;7.222;2023-03-23T04:27:49;19.80;65.20
2957;DHT22;1488;51.548;7.222;2023-03-23T04:30:21;19.80;65.20
2957;DHT22;1488;51.548;7.222;2023-03-23T04:32:49;19.80;65.20
2957;DHT22;1488;51.548;7.222;2023-03-23T04:35:18;19.80;65.20
2957;DHT22;1488;51.548;7.222;2023-03-23T04:41:08;19.80;65.20
2957;DHT22;1488;51.548;7.222;2023-03-23T04:43:36;19.80;65.30
2957;DHT22;1488;51.548;7.222;2023-03-23T04:46:08;19.80;65.30
2957;DHT22;1488;51.548;7.222;2023-03-23T04:48:35;19.80;65.20
2957;DHT22;1488;51.548;7.222;2023-03-23T04:51:05;19.80;65.20
2957;DHT22;1488;51.548;7.222;2023-03-23T04:53:32;19.80;65.20
2957;DHT22;1488;51.548;7.222;2023-03-23T04:56:00;19.80;65.20
2957;DHT22;1488;51.548;7.222;2023-03-23T04:58:27;19.80;65.20
2957;DHT22;1488;51.548;7.222;2023-03-23T05:00:55;19.80;65.20
2957;DHT22;1488;51.548;7.222;2023-03-23T05:03:24;19.80;65.20
2957;DHT22;1488;51.548;7.222;2023-03-23T05:05:51;19.90;65.30
2957;DHT22;1488;51.548;7.222;2023-03-23T05:08:19;19.80;65.20
2957;DHT22;1488;51.548;7.222;2023-03-23T05:10:53;19.80;65.20
2957;DHT22;1488;51.548;7.222;2023-03-23T05:13:21;19.80;65.20
2957;DHT22;1488;51.548;7.222;2023-03-23T05:15:48;19.80;65.20
2957;DHT22;1488;51.548;7.222;2023-03-23T05:18:15;19.80;65.20
2957;DHT22;1488;51.548;7.222;2023-03-23T05:20:44;19.80;65.20
2957;DHT22;1488;51.548;7.222;2023-03-23T05:23:12;19.80;65.20
2957;DHT22;1488;51.548;7.222;2023-03-23T05:25:39;19.80;66.00
2957;DHT22;1488;51.548;7.222;2023-03-23T05:28:06;19.80;65.20
2957;DHT22;1488;51.548;7.222;2023-03-23T05:30:34;19.80;65.30
2957;DHT22;1488;51.548;7.222;2023-03-23T05:33:01;19.80;65.20
2957;DHT22;1488;51.548;7.222;2023-03-23T05:35:29;19.80;65.20
2957;DHT22;1488;51.548;7.222;2023-03-23T05:37:58;19.80;65.20
2957;DHT22;1488;51.548;7.222;2023-03-23T05:40:26;19.80;65.20
2957;DHT22;1488;51.548;7.222;2023-03-23T05:42:53;19.80;65.10
2957;DHT22;1488;51.548;7.222;2023-03-23T05:45:23;19.80;65.20
2957;DHT22;1488;51.548;7.222;2023-03-23T05:47:52;19.80;65.20
2957;DHT22;1488;51.548;7.222;2023-03-23T05:50:19;19.80;65.10
2957;DHT22;1488;51.548;7.222;2023-03-23T05:52:46;19.80;65.10
2957;DHT22;1488;51.548;7.222;2023-03-23T05:58:37;19.80;65.10
2957;DHT22;1488;51.548;7.222;2023-03-23T06:01:06;19.70;65.20
2957;DHT22;1488;51.548;7.222;2023-03-23T06:03:33;19.80;65.20
2957;DHT22;1488;51.548;7.222;2023-03-23T06:06:01;19.80;65.40
2957;DHT22;1488;51.548;7.222;2023-03-23T06:08:28;19.90;65.30
2957;DHT22;1488;51.548;7.222;2023-03-23T06:10:55;19.80;65.10
2957;DHT22;1488;51.548;7.222;2023-03-23T06:13:23;19.80;65.10
2957;DHT22;1488;51.548;7.222;2023-03-23T06:15:55;19.80;65.10
2957;DHT22;1488;51.548;7.222;2023-03-23T06:18:22;19.80;65.20
2957;DHT22;1488;51.548;7.222;2023-03-23T06:20:50;19.80;65.10
2957;DHT22;1488;51.548;7.222;2023-03-23T06:23:17;19.80;65.10
2957;DHT22;1488;51.548;7.222;2023-03-23T06:25:46;19.80;65.10
2957;DHT22;1488;51.548;7.222;2023-03-23T06:28:13;19.80;65.10
2957;DHT22;1488;51.548;7.222;2023-03-23T06:30:40;19.80;65.10
2957;DHT22;1488;51.548;7.222;2023-03-23T06:33:10;19.90;65.30
2957;DHT22;1488;51.548;7.222;2023-03-23T06:35:37;19.80;65.10
2957;DHT22;1488;51.548;7.222;2023-03-23T06:38:05;19.80;65.20
2957;DHT22;1488;51.548;7.222;2023-03-23T06:40:32;19.90;65.20
2957;DHT22;1488;51.548;7.222;2023-03-23T06:43:01;19.80;65.10
2957;DHT22;1488;51.548;7.222;2023-03-23T06:45:29;19.70;65.00
2957;DHT22;1488;51.548;7.222;2023-03-23T06:47:56;19.70;65.10
2957;DHT22;1488;51.548;7.222;2023-03-23T06:50:26;19.80;65.20
2957;DHT22;1488;51.548;7.222;2023-03-23T06:52:56;19.80;65.20
2957;DHT22;1488;51.548;7.222;2023-03-23T06:55:22;19.80;65.30
2957;DHT22;1488;51.548;7.222;2023-03-23T06:57:50;19.80;65.20
2957;DHT22;1488;51.548;7.222;2023-03-23T07:00:18;19.80;65.10
2957;DHT22;1488;51.548;7.222;2023-03-23T07:02:47;19.80;65.10
2957;DHT22;1488;51.548;7.222;2023-03-23T07:08:37;19.80;65.00
2957;DHT22;1488;51.548;7.222;2023-03-23T07:11:04;19.80;65.30
2957;DHT22;1488;51.548;7.222;2023-03-23T07:13:32;19.80;65.20
2957;DHT22;1488;51.548;7.222;2023-03-23T07:15:59;19.80;65.20
2957;DHT22;1488;51.548;7.222;2023-03-23T07:18:26;19.90;65.50
2957;DHT22;1488;51.548;7.222;2023-03-23T07:20:54;19.90;65.50
2957;DHT22;1488;51.548;7.222;2023-03-23T07:23:21;19.90;65.50
2957;DHT22;1488;51.548;7.222;2023-03-23T07:25:49;19.90;65.50
2957;DHT22;1488;51.548;7.222;2023-03-23T07:28:17;19.80;65.40
2957;DHT22;1488;51.548;7.222;2023-03-23T07:30:44;19.90;65.60
2957;DHT22;1488;51.548;7.222;2023-03-23T07:33:12;19.90;65.60
2957;DHT22;1488;51.548;7.222;2023-03-23T07:35:39;19.90;65.60
2957;DHT22;1488;51.548;7.222;2023-03-23T07:38:07;19.90;65.60
2957;DHT22;1488;51.548;7.222;2023-03-23T07:40:34;19.70;65.30
2957;DHT22;1488;51.548;7.222;2023-03-23T07:43:03;19.90;65.50
2957;DHT22;1488;51.548;7.222;2023-03-23T07:45:31;19.90;65.50
2957;DHT22;1488;51.548;7.222;2023-03-23T07:51:20;19.90;65.40
2957;DHT22;1488;51.548;7.222;2023-03-23T07:53:48;20.00;65.80
2957;DHT22;1488;51.548;7.222;2023-03-23T08:03:22;19.90;65.80
2957;DHT22;1488;51.548;7.222;2023-03-23T08:05:49;20.00;66.10
2957;DHT22;1488;51.548;7.222;2023-03-23T08:08:23;19.90;65.90
2957;DHT22;1488;51.548;7.222;2023-03-23T08:10:50;19.90;65.90
2957;DHT22;1488;51.548;7.222;2023-03-23T08:13:17;19.90;65.80
2957;DHT22;1488;51.548;7.222;2023-03-23T08:15:46;19.90;65.80
2957;DHT22;1488;51.548;7.222;2023-03-23T08:58:42;19.80;66.50
2957;DHT22;1488;51.548;7.222;2023-03-23T09:01:09;19.80;66.60
2957;DHT22;1488;51.548;7.222;2023-03-23T09:03:36;19.80;66.30
2957;DHT22;1488;51.548;7.222;2023-03-23T09:06:06;19.80;66.10
2957;DHT22;1488;51.548;7.222;2023-03-23T09:08:34;19.90;66.20
2957;DHT22;1488;51.548;7.222;2023-03-23T09:11:04;19.90;66.10
2957;DHT22;1488;51.548;7.222;2023-03-23T09:13:33;19.90;66.20
2957;DHT22;1488;51.548;7.222;2023-03-23T09:16:02;19.90;66.40
2957;DHT22;1488;51.548;7.222;2023-03-23T09:18:31;19.90;66.10
2957;DHT22;1488;51.548;7.222;2023-03-23T09:20:59;19.90;66.20
2957;DHT22;1488;51.548;7.222;2023-03-23T09:23:27;19.90;66.90
2957;DHT22;1488;51.548;7.222;2023-03-23T09:25:54;19.90;66.00
2957;DHT22;1488;51.548;7.222;2023-03-23T09:28:21;19.90;66.00
2957;DHT22;1488;51.548;7.222;2023-03-23T09:30:48;19.90;66.00
2957;DHT22;1488;51.548;7.222;2023-03-23T09:33:18;19.90;66.00
2957;DHT22;1488;51.548;7.222;2023-03-23T09:35:45;19.90;66.10
2957;DHT22;1488;51.548;7.222;2023-03-23T09:38:12;19.90;66.10
2957;DHT22;1488;51.548;7.222;2023-03-23T09:40:45;19.90;66.20
2957;DHT22;1488;51.548;7.222;2023-03-23T09:43:32;19.90;66.40
2957;DHT22;1488;51.548;7.222;2023-03-23T09:46:13;19.90;66.50
2957;DHT22;1488;51.548;7.222;2023-03-23T09:48:49;19.90;66.40
2957;DHT22;1488;51.548;7.222;2023-03-23T09:51:28;19.90;66.40
2957;DHT22;1488;51.548;7.222;2023-03-23T09:54:02;19.90;66.40
2957;DHT22;1488;51.548;7.222;2023-03-23T09:56:31;19.90;66.40
2957;DHT22;1488;51.548;7.222;2023-03-23T09:59:02;19.90;66.30
2957;DHT22;1488;51.548;7.222;2023-03-23T10:01:34;19.90;66.50
2957;DHT22;1488;51.548;7.222;2023-03-23T10:04:09;19.90;66.50
2957;DHT22;1488;51.548;7.222;2023-03-23T10:06:37;19.90;66.50
2957;DHT22;1488;51.548;7.222;2023-03-23T10:09:05;19.90;66.60
2957;DHT22;1488;51.548;7.222;2023-03-23T10:11:42;19.90;66.50
2957;DHT22;1488;51.548;7.222;2023-03-23T10:14:25;19.90;66.50
2957;DHT22;1488;51.548;7.222;2023-03-23T10:17:00;19.90;66.50
2957;DHT22;1488;51.548;7.222;2023-03-23T10:19:35;19.80;66.70
2957;DHT22;1488;51.548;7.222;2023-03-23T10:22:04;19.90;66.80
2957;DHT22;1488;51.548;7.222;2023-03-23T10:24:35;19.90;66.70
2957;DHT22;1488;51.548;7.222;2023-03-23T10:27:11;19.80;66.60
2957;DHT22;1488;51.548;7.222;2023-03-23T10:29:43;19.80;66.70
2957;DHT22;1488;51.548;7.222;2023-03-23T10:32:14;19.90;66.70
2957;DHT22;1488;51.548;7.222;2023-03-23T10:34:49;19.80;66.60
2957;DHT22;1488;51.548;7.222;2023-03-23T10:37:19;19.80;66.80
2957;DHT22;1488;51.548;7.222;2023-03-23T10:39:49;19.80;66.80
2957;DHT22;1488;51.548;7.222;2023-03-23T10:42:25;19.80;66.70
2957;DHT22;1488;51.548;7.222;2023-03-23T10:44:53;19.80;66.80
2957;DHT22;1488;51.548;7.222;2023-03-23T10:47:22;19.80;66.70
2957;DHT22;1488;51.548;7.222;2023-03-23T10:49:53;19.80;66.70
2957;DHT22;1488;51.548;7.222;2023-03-23T10:52:31;19.80;66.80
2957;DHT22;1488;51.548;7.222;2023-03-23T10:55:03;19.80;66.80
2957;DHT22;1488;51.548;7.222;2023-03-23T10:57:33;19.80;66.80
2957;DHT22;1488;51.548;7.222;2023-03-23T11:00:02;19.80;66.80
2957;DHT22;1488;51.548;7.222;2023-03-23T11:02:37;19.80;66.70
2957;DHT22;1488;51.548;7.222;2023-03-23T11:05:09;19.80;66.70
2957;DHT22;1488;51.548;7.222;2023-03-23T11:07:39;19.80;66.70
2957;DHT22;1488;51.548;7.222;2023-03-23T11:10:16;19.80;66.70
2957;DHT22;1488;51.548;7.222;2023-03-23T11:12:44;19.90;66.60
2957;DHT22;1488;51.548;7.222;2023-03-23T11:15:24;19.80;66.50
2957;DHT22;1488;51.548;7.222;2023-03-23T11:18:02;19.90;66.60
2957;DHT22;1488;51.548;7.222;2023-03-23T11:20:35;19.80;66.50
2957;DHT22;1488;51.548;7.222;2023-03-23T11:23:09;19.80;66.40
2957;DHT22;1488;51.548;7.222;2023-03-23T11:25:54;19.80;66.50
2957;DHT22;1488;51.548;7.222;2023-03-23T11:28:26;19.80;66.60
2957;DHT22;1488;51.548;7.222;2023-03-23T11:30:55;19.80;66.60
2957;DHT22;1488;51.548;7.222;2023-03-23T11:33:22;19.80;66.50
2957;DHT22;1488;51.548;7.222;2023-03-23T11:35:53;19.80;66.70
2957;DHT22;1488;51.548;7.222;2023-03-23T11:38:22;19.90;66.80
2957;DHT22;1488;51.548;7.222;2023-03-23T11:40:52;19.80;66.80
2957;DHT22;1488;51.548;7.222;2023-03-23T11:43:20;19.80;66.80
2957;DHT22;1488;51.548;7.222;2023-03-23T11:45:53;19.80;66.80
2957;DHT22;1488;51.548;7.222;2023-03-23T11:48:28;19.90;66.90
2957;DHT22;1488;51.548;7.222;2023-03-23T11:51:01;19.80;66.80
2957;DHT22;1488;51.548;7.222;2023-03-23T11:53:37;19.80;66.70
2957;DHT22;1488;51.548;7.222;2023-03-23T11:56:15;19.80;66.70
2957;DHT22;1488;51.548;7.222;2023-03-23T11:58:44;19.80;66.70
2957;DHT22;1488;51.548;7.222;2023-03-23T12:01:29;19.80;66.70
2957;DHT22;1488;51.548;7.222;2023-03-23T12:04:16;19.80;66.80
2957;DHT22;1488;51.548;7.222;2023-03-23T12:06:54;19.80;66.80
2957;DHT22;1488;51.548;7.222;2023-03-23T12:09:33;19.80;66.70
2957;DHT22;1488;51.548;7.222;2023-03-23T12:12:12;19.80;66.70
2957;DHT22;1488;51.548;7.222;2023-03-23T12:14:48;19.80;66.80
2957;DHT22;1488;51.548;7.222;2023-03-23T12:17:26;19.80;66.80
2957;DHT22;1488;51.548;7.222;2023-03-23T12:20:08;19.80;66.70
2957;DHT22;1488;51.548;7.222;2023-03-23T12:22:55;19.80;66.70
2957;DHT22;1488;51.548;7.222;2023-03-23T12:25:43;19.80;66.70
2957;DHT22;1488;51.548;7.222;2023-03-23T12:28:21;20.00;66.90
2957;DHT22;1488;51.548;7.222;2023-03-23T12:30:54;19.80;66.70
2957;DHT22;1488;51.548;7.222;2023-03-23T12:33:28;19.80;66.70
2957;DHT22;1488;51.548;7.222;2023-03-23T12:36:08;19.80;66.80
2957;DHT22;1488;51.548;7.222;2023-03-23T12:38:52;19.80;66.80
2957;DHT22;1488;51.548;7.222;2023-03-23T12:41:26;19.80;66.80
2957;DHT22;1488;51.548;7.222;2023-03-23T12:43:58;19.80;66.80
2957;DHT22;1488;51.548;7.222;2023-03-23T12:46:45;19.80;66.80
2957;DHT22;1488;51.548;7.222;2023-03-23T12:49:19;19.80;66.80
2957;DHT22;1488;51.548;7.222;2023-03-23T12:51:51;19.80;66.90
2957;DHT22;1488;51.548;7.222;2023-03-23T12:54:28;19.80;66.80
2957;DHT22;1488;51.548;7.222;2023-03-23T12:57:02;19.80;66.90
2957;DHT22;1488;51.548;7.222;2023-03-23T12:59:38;19.80;67.70
2957;DHT22;1488;51.548;7.222;2023-03-23T13:02:13;19.80;66.80
2957;DHT22;1488;51.548;7.222;2023-03-23T13:04:44;19.80;66.70
2957;DHT22;1488;51.548;7.222;2023-03-23T13:07:15;19.80;66.70
2957;DHT22;1488;51.548;7.222;2023-03-23T13:09:50;19.80;66.70
2957;DHT22;1488;51.548;7.222;2023-03-23T13:12:19;19.80;66.30
2957;DHT22;1488;51.548;7.222;2023-03-23T13:14:53;19.80;66.40
2957;DHT22;1488;51.548;7.222;2023-03-23T13:17:31;19.80;66.30
2957;DHT22;1488;51.548;7.222;2023-03-23T13:23:15;19.90;66.40
2957;DHT22;1488;51.548;7.222;2023-03-23T13:25:52;19.80;66.50
2957;DHT22;1488;51.548;7.222;2023-03-23T13:28:21;19.90;66.80
2957;DHT22;1488;51.548;7.222;2023-03-23T13:30:56;19.80;66.60
2957;DHT22;1488;51.548;7.222;2023-03-23T13:33:23;19.90;66.70
2957;DHT22;1488;51.548;7.222;2023-03-23T13:35:51;19.90;66.70
2957;DHT22;1488;51.548;7.222;2023-03-23T13:38:21;19.90;66.70
2957;DHT22;1488;51.548;7.222;2023-03-23T13:40:50;19.90;66.70
2957;DHT22;1488;51.548;7.222;2023-03-23T13:43:26;19.90;66.90
2957;DHT22;1488;51.548;7.222;2023-03-23T13:45:53;19.90;67.00
2957;DHT22;1488;51.548;7.222;2023-03-23T13:48:23;19.90;67.00
2957;DHT22;1488;51.548;7.222;2023-03-23T13:50:53;19.90;67.00
2957;DHT22;1488;51.548;7.222;2023-03-23T13:53:24;19.90;67.10
2957;DHT22;1488;51.548;7.222;2023-03-23T13:56:06;19.90;66.90
2957;DHT22;1488;51.548;7.222;2023-03-23T13:58:44;19.90;67.10
2957;DHT22;1488;51.548;7.222;2023-03-23T14:01:15;19.90;67.00
2957;DHT22;1488;51.548;7.222;2023-03-23T14:03:45;19.90;67.10
2957;DHT22;1488;51.548;7.222;2023-03-23T14:06:18;19.90;67.30
2957;DHT22;1488;51.548;7.222;2023-03-23T14:08:48;19.90;67.40
2957;DHT22;1488;51.548;7.222;2023-03-23T14:11:22;19.90;67.60
2957;DHT22;1488;51.548;7.222;2023-03-23T14:14:02;19.90;67.50
2957;DHT22;1488;51.548;7.222;2023-03-23T14:16:37;19.90;67.50
2957;DHT22;1488;51.548;7.222;2023-03-23T14:19:15;19.90;67.60
2957;DHT22;1488;51.548;7.222;2023-03-23T14:21:50;19.90;67.90
2957;DHT22;1488;51.548;7.222;2023-03-23T14:24:19;20.00;68.20
2957;DHT22;1488;51.548;7.222;2023-03-23T14:26:50;19.90;68.40
2957;DHT22;1488;51.548;7.222;2023-03-23T14:29:20;20.00;68.30
2957;DHT22;1488;51.548;7.222;2023-03-23T14:31:53;20.10;68.40
2957;DHT22;1488;51.548;7.222;2023-03-23T14:34:22;20.00;68.30
2957;DHT22;1488;51.548;7.222;2023-03-23T14:36:52;20.00;68.20
2957;DHT22;1488;51.548;7.222;2023-03-23T14:39:22;20.00;68.40
2957;DHT22;1488;51.548;7.222;2023-03-23T14:41:52;19.90;68.40
2957;DHT22;1488;51.548;7.222;2023-03-23T14:44:23;20.10;68.60
2957;DHT22;1488;51.548;7.222;2023-03-23T14:46:50;20.10;68.60
2957;DHT22;1488;51.548;7.222;2023-03-23T14:49:20;20.00;68.40
2957;DHT22;1488;51.548;7.222;2023-03-23T14:51:50;20.00;68.60
2957;DHT22;1488;51.548;7.222;2023-03-23T14:54:23;20.00;68.70
2957;DHT22;1488;51.548;7.222;2023-03-23T14:56:52;20.00;68.60
2957;DHT22;1488;51.548;7.222;2023-03-23T14:59:19;20.00;68.40
2957;DHT22;1488;51.548;7.222;2023-03-23T15:01:47;20.00;68.50
2957;DHT22;1488;51.548;7.222;2023-03-23T15:04:17;20.00;68.50
2957;DHT22;1488;51.548;7.222;2023-03-23T15:06:48;20.00;68.50
2957;DHT22;1488;51.548;7.222;2023-03-23T15:09:17;20.00;68.30
2957;DHT22;1488;51.548;7.222;2023-03-23T15:11:53;20.00;68.40
2957;DHT22;1488;51.548;7.222;2023-03-23T15:14:22;20.00;68.40
2957;DHT22;1488;51.548;7.222;2023-03-23T15:16:51;20.00;68.50
2957;DHT22;1488;51.548;7.222;2023-03-23T15:19:21;20.00;68.40
2957;DHT22;1488;51.548;7.222;2023-03-23T15:21:52;20.00;68.30
2957;DHT22;1488;51.548;7.222;2023-03-23T15:24:24;20.00;68.30
2957;DHT22;1488;51.548;7.222;2023-03-23T15:26:53;20.00;68.20
2957;DHT22;1488;51.548;7.222;2023-03-23T15:29:21;20.00;68.30
2957;DHT22;1488;51.548;7.222;2023-03-23T15:31:51;20.00;68.40
2957;DHT22;1488;51.548;7.222;2023-03-23T15:34:25;20.00;68.20
2957;DHT22;1488;51.548;7.222;2023-03-23T15:36:59;20.00;68.40
2957;DHT22;1488;51.548;7.222;2023-03-23T15:39:27;20.10;68.60
2957;DHT22;1488;51.548;7.222;2023-03-23T15:41:57;20.00;68.20
2957;DHT22;1488;51.548;7.222;2023-03-23T15:44:29;20.00;68.60
2957;DHT22;1488;51.548;7.222;2023-03-23T15:47:18;20.00;68.90
2957;DHT22;1488;51.548;7.222;2023-03-23T15:49:47;20.00;68.90
2957;DHT22;1488;51.548;7.222;2023-03-23T15:52:15;20.00;68.80
2957;DHT22;1488;51.548;7.222;2023-03-23T15:54:48;20.00;70.00
2957;DHT22;1488;51.548;7.222;2023-03-23T15:57:17;20.00;69.00
2957;DHT22;1488;51.548;7.222;2023-03-23T15:59:44;20.00;69.00
2957;DHT22;1488;51.548;7.222;2023-03-23T16:02:17;20.10;68.80
2957;DHT22;1488;51.548;7.222;2023-03-23T16:04:45;20.10;69.00
2957;DHT22;1488;51.548;7.222;2023-03-23T16:07:12;20.10;69.00
2957;DHT22;1488;51.548;7.222;2023-03-23T16:09:39;20.10;68.90
2957;DHT22;1488;51.548;7.222;2023-03-23T16:12:10;20.20;69.10
2957;DHT22;1488;51.548;7.222;2023-03-23T16:14:39;20.10;68.90
2957;DHT22;1488;51.548;7.222;2023-03-23T16:17:10;20.10;69.20
2957;DHT22;1488;51.548;7.222;2023-03-23T16:19:40;20.10;69.20
2957;DHT22;1488;51.548;7.222;2023-03-23T16:22:08;20.10;69.20
2957;DHT22;1488;51.548;7.222;2023-03-23T16:24:37;20.00;69.10
2957;DHT22;1488;51.548;7.222;2023-03-23T16:27:04;20.00;69.20
2957;DHT22;1488;51.548;7.222;2023-03-23T16:29:31;20.00;69.10
2957;DHT22;1488;51.548;7.222;2023-03-23T16:32:00;20.10;69.10
2957;DHT22;1488;51.548;7.222;2023-03-23T16:34:26;20.10;69.00
2957;DHT22;1488;51.548;7.222;2023-03-23T16:36:57;20.10;68.80
2957;DHT22;1488;51.548;7.222;2023-03-23T16:39:24;20.20;69.20
2957;DHT22;1488;51.548;7.222;2023-03-23T16:41:51;20.10;68.80
2957;DHT22;1488;51.548;7.222;2023-03-23T16:44:18;20.20;68.50
2957;DHT22;1488;51.548;7.222;2023-03-23T16:46:45;20.10;68.90
2957;DHT22;1488;51.548;7.222;2023-03-23T16:49:13;20.00;68.70
2957;DHT22;1488;51.548;7.222;2023-03-23T16:51:40;20.00;68.90
2957;DHT22;1488;51.548;7.222;2023-03-23T16:54:07;20.00;68.70
2957;DHT22;1488;51.548;7.222;2023-03-23T16:56:34;20.00;68.70
2957;DHT22;1488;51.548;7.222;2023-03-23T16:59:00;20.00;68.70
2957;DHT22;1488;51.548;7.222;2023-03-23T17:01:27;20.00;68.80
2957;DHT22;1488;51.548;7.222;2023-03-23T17:03:54;20.00;68.80
2957;DHT22;1488;51.548;7.222;2023-03-23T17:06:22;20.00;68.40
2957;DHT22;1488;51.548;7.222;2023-03-23T17:08:49;20.00;68.40
2957;DHT22;1488;51.548;7.222;2023-03-23T17:11:16;20.00;68.50
2957;DHT22;1488;51.548;7.222;2023-03-23T17:13:42;20.00;68.40
2957;DHT22;1488;51.548;7.222;2023-03-23T17:16:09;20.00;68.40
2957;DHT22;1488;51.548;7.222;2023-03-23T17:18:36;20.00;68.60
2957;DHT22;1488;51.548;7.222;2023-03-23T17:21:03;20.00;68.50
2957;DHT22;1488;51.548;7.222;2023-03-23T17:23:32;20.00;68.40
2957;DHT22;1488;51.548;7.222;2023-03-23T17:25:59;20.00;68.60
2957;DHT22;1488;51.548;7.222;2023-03-23T17:28:26;20.00;68.40
2957;DHT22;1488;51.548;7.222;2023-03-23T17:30:53;20.00;68.30
2957;DHT22;1488;51.548;7.222;2023-03-23T17:33:20;20.00;68.40
2957;DHT22;1488;51.548;7.222;2023-03-23T17:35:47;20.00;68.30
2957;DHT22;1488;51.548;7.222;2023-03-23T17:38:16;20.00;68.20
2957;DHT22;1488;51.548;7.222;2023-03-23T17:40:44;20.00;67.90